sensor_id;sensor_type;location;lat;lon;timestamp;P1;durP1;ratioP1;P2;durP2;ratioP2
75798;SDS011;70933;44.692;37.776;2023-10-09T00:00:17;0.40;;;0.00;;
75798;SDS011;70933;44.692;37.776;2023-10-09T00:01:52;1.20;;;0.00;;
75798;SDS011;70933;44.692;37.776;2023-10-09T00:02:54;1.15;;;0.00;;
75798;SDS011;70933;44.692;37.776;2023-10-09T00:03:56;0.40;;;0.10;;
75798;SDS011;70933;44.692;37.776;2023-10-09T00:05:02;0.90;;;0.63;;
75798;SDS011;70933;44.692;37.776;2023-10-09T00:06:16;1.77;;;1.00;;
75798;SDS011;70933;44.692;37.776;2023-10-09T00:07:17;1.40;;;0.13;;
75798;SDS011;70933;44.692;37.776;2023-10-09T00:08:20;0.85;;;0.00;;
75798;SDS011;70933;44.692;37.776;2023-10-09T00:09:35;0.85;;;0.00;;
75798;SDS011;70933;44.692;37.776;2023-10-09T00:10:49;1.13;;;0.10;;
75798;SDS011;70933;44.692;37.776;2023-10-09T00:11:55;0.95;;;0.00;;
75798;SDS011;70933;44.692;37.776;2023-10-09T00:13:01;1.88;;;1.15;;
75798;SDS011;70933;44.692;37.776;2023-10-09T00:14:03;0.95;;;0.10;;
75798;SDS011;70933;44.692;37.776;2023-10-09T00:15:06;1.40;;;0.90;;
75798;SDS011;70933;44.692;37.776;2023-10-09T00:16:12;1.13;;;0.00;;
75798;SDS011;70933;44.692;37.776;2023-10-09T00:17:24;1.15;;;0.20;;
75798;SDS011;70933;44.692;37.776;2023-10-09T00:18:31;1.13;;;0.10;;
75798;SDS011;70933;44.692;37.776;2023-10-09T00:19:35;1.13;;;0.13;;
75798;SDS011;70933;44.692;37.776;2023-10-09T00:20:38;1.55;;;0.28;;
75798;SDS011;70933;44.692;37.776;2023-10-09T00:21:44;0.95;;;0.77;;
75798;SDS011;70933;44.692;37.776;2023-10-09T00:22:46;0.52;;;0.08;;
75798;SDS011;70933;44.692;37.776;2023-10-09T00:23:48;0.73;;;0.10;;
75798;SDS011;70933;44.692;37.776;2023-10-09T00:25:00;1.85;;;1.55;;
75798;SDS011;70933;44.692;37.776;2023-10-09T00:26:12;1.05;;;0.10;;
75798;SDS011;70933;44.692;37.776;2023-10-09T00:27:27;1.27;;;1.02;;
75798;SDS011;70933;44.692;37.776;2023-10-09T00:28:32;1.65;;;0.10;;
75798;SDS011;70933;44.692;37.776;2023-10-09T00:29:35;0.90;;;0.10;;
75798;SDS011;70933;44.692;37.776;2023-10-09T00:30:43;1.48;;;1.13;;
75798;SDS011;70933;44.692;37.776;2023-10-09T00:31:44;1.08;;;0.05;;
75798;SDS011;70933;44.692;37.776;2023-10-09T00:32:51;1.25;;;0.00;;
75798;SDS011;70933;44.692;37.776;2023-10-09T00:34:02;1.30;;;0.90;;
75798;SDS011;70933;44.692;37.776;2023-10-09T00:35:06;0.80;;;0.10;;
75798;SDS011;70933;44.692;37.776;2023-10-09T00:36:26;1.10;;;0.70;;
75798;SDS011;70933;44.692;37.776;2023-10-09T00:37:29;0.70;;;0.10;;
75798;SDS011;70933;44.692;37.776;2023-10-09T00:38:38;1.45;;;0.10;;
75798;SDS011;70933;44.692;37.776;2023-10-09T00:39:47;0.82;;;0.00;;
75798;SDS011;70933;44.692;37.776;2023-10-09T00:40:51;0.57;;;0.00;;
75798;SDS011;70933;44.692;37.776;2023-10-09T00:42:09;0.82;;;0.00;;
75798;SDS011;70933;44.692;37.776;2023-10-09T00:43:15;0.80;;;0.10;;
75798;SDS011;70933;44.692;37.776;2023-10-09T00:44:20;1.08;;;0.75;;
75798;SDS011;70933;44.692;37.776;2023-10-09T00:45:22;1.33;;;0.40;;
75798;SDS011;70933;44.692;37.776;2023-10-09T00:46:28;0.93;;;0.00;;
75798;SDS011;70933;44.692;37.776;2023-10-09T00:47:30;1.45;;;0.73;;
75798;SDS011;70933;44.692;37.776;2023-10-09T00:48:36;0.77;;;0.00;;
75798;SDS011;70933;44.692;37.776;2023-10-09T00:49:41;1.58;;;1.20;;
75798;SDS011;70933;44.692;37.776;2023-10-09T00:50:44;1.10;;;0.93;;
75798;SDS011;70933;44.692;37.776;2023-10-09T00:51:53;1.13;;;0.22;;
75798;SDS011;70933;44.692;37.776;2023-10-09T00:52:57;1.10;;;0.98;;
75798;SDS011;70933;44.692;37.776;2023-10-09T00:54:12;1.52;;;1.20;;
75798;SDS011;70933;44.692;37.776;2023-10-09T00:55:15;1.42;;;0.85;;
75798;SDS011;70933;44.692;37.776;2023-10-09T00:56:38;1.38;;;1.00;;
75798;SDS011;70933;44.692;37.776;2023-10-09T00:57:45;1.40;;;0.55;;
75798;SDS011;70933;44.692;37.776;2023-10-09T00:58:59;0.80;;;0.00;;
75798;SDS011;70933;44.692;37.776;2023-10-09T01:00:09;2.20;;;0.15;;
75798;SDS011;70933;44.692;37.776;2023-10-09T01:01:29;1.17;;;0.10;;
75798;SDS011;70933;44.692;37.776;2023-10-09T01:02:45;1.17;;;0.00;;
75798;SDS011;70933;44.692;37.776;2023-10-09T01:03:47;1.17;;;0.00;;
75798;SDS011;70933;44.692;37.776;2023-10-09T01:04:52;0.90;;;0.25;;
75798;SDS011;70933;44.692;37.776;2023-10-09T01:05:54;1.05;;;0.00;;
75798;SDS011;70933;44.692;37.776;2023-10-09T01:06:58;1.70;;;0.10;;
75798;SDS011;70933;44.692;37.776;2023-10-09T01:08:09;1.40;;;0.77;;
75798;SDS011;70933;44.692;37.776;2023-10-09T01:09:25;1.50;;;1.02;;
75798;SDS011;70933;44.692;37.776;2023-10-09T01:11:35;1.77;;;1.05;;
75798;SDS011;70933;44.692;37.776;2023-10-09T01:12:49;1.17;;;1.08;;
75798;SDS011;70933;44.692;37.776;2023-10-09T01:13:56;1.95;;;1.00;;
75798;SDS011;70933;44.692;37.776;2023-10-09T01:15:10;0.93;;;0.82;;
75798;SDS011;70933;44.692;37.776;2023-10-09T01:16:30;1.27;;;0.90;;
75798;SDS011;70933;44.692;37.776;2023-10-09T01:17:32;1.42;;;0.77;;
75798;SDS011;70933;44.692;37.776;2023-10-09T01:18:36;1.58;;;0.80;;
75798;SDS011;70933;44.692;37.776;2023-10-09T01:19:41;1.10;;;0.10;;
75798;SDS011;70933;44.692;37.776;2023-10-09T01:20:44;1.35;;;0.10;;
75798;SDS011;70933;44.692;37.776;2023-10-09T01:21:46;0.77;;;0.00;;
75798;SDS011;70933;44.692;37.776;2023-10-09T01:22:49;1.73;;;0.20;;
75798;SDS011;70933;44.692;37.776;2023-10-09T01:23:52;1.20;;;0.00;;
75798;SDS011;70933;44.692;37.776;2023-10-09T01:25:03;1.05;;;0.10;;
75798;SDS011;70933;44.692;37.776;2023-10-09T01:26:07;1.00;;;0.00;;
75798;SDS011;70933;44.692;37.776;2023-10-09T01:27:08;0.80;;;0.00;;
75798;SDS011;70933;44.692;37.776;2023-10-09T01:28:16;1.63;;;1.48;;
75798;SDS011;70933;44.692;37.776;2023-10-09T01:29:20;0.50;;;0.00;;
75798;SDS011;70933;44.692;37.776;2023-10-09T01:30:23;1.60;;;0.98;;
75798;SDS011;70933;44.692;37.776;2023-10-09T01:31:24;1.00;;;0.15;;
75798;SDS011;70933;44.692;37.776;2023-10-09T01:32:35;1.00;;;0.00;;
75798;SDS011;70933;44.692;37.776;2023-10-09T01:33:36;0.77;;;0.15;;
75798;SDS011;70933;44.692;37.776;2023-10-09T01:34:38;1.30;;;1.00;;
75798;SDS011;70933;44.692;37.776;2023-10-09T01:35:42;1.65;;;1.13;;
75798;SDS011;70933;44.692;37.776;2023-10-09T01:36:51;2.47;;;0.10;;
75798;SDS011;70933;44.692;37.776;2023-10-09T01:37:59;0.98;;;0.03;;
75798;SDS011;70933;44.692;37.776;2023-10-09T01:39:02;0.77;;;0.00;;
75798;SDS011;70933;44.692;37.776;2023-10-09T01:40:29;1.08;;;0.98;;
75798;SDS011;70933;44.692;37.776;2023-10-09T01:41:38;1.30;;;0.10;;
75798;SDS011;70933;44.692;37.776;2023-10-09T01:42:47;1.17;;;0.20;;
75798;SDS011;70933;44.692;37.776;2023-10-09T01:43:49;1.08;;;0.00;;
75798;SDS011;70933;44.692;37.776;2023-10-09T01:44:52;1.70;;;0.60;;
75798;SDS011;70933;44.692;37.776;2023-10-09T01:45:54;0.93;;;0.10;;
75798;SDS011;70933;44.692;37.776;2023-10-09T01:46:55;1.00;;;0.05;;
75798;SDS011;70933;44.692;37.776;2023-10-09T01:49:05;1.00;;;0.00;;
75798;SDS011;70933;44.692;37.776;2023-10-09T01:50:17;1.13;;;0.20;;
75798;SDS011;70933;44.692;37.776;2023-10-09T01:51:23;0.80;;;0.10;;
75798;SDS011;70933;44.692;37.776;2023-10-09T01:52:25;1.38;;;0.10;;
75798;SDS011;70933;44.692;37.776;2023-10-09T01:53:28;0.98;;;0.10;;
75798;SDS011;70933;44.692;37.776;2023-10-09T01:55:39;1.05;;;0.03;;
75798;SDS011;70933;44.692;37.776;2023-10-09T01:56:42;1.60;;;0.98;;
75798;SDS011;70933;44.692;37.776;2023-10-09T01:57:47;2.33;;;1.08;;
75798;SDS011;70933;44.692;37.776;2023-10-09T01:58:49;1.73;;;1.20;;
75798;SDS011;70933;44.692;37.776;2023-10-09T01:59:51;1.42;;;0.85;;
75798;SDS011;70933;44.692;37.776;2023-10-09T02:00:58;2.22;;;0.28;;
75798;SDS011;70933;44.692;37.776;2023-10-09T02:02:02;1.23;;;0.20;;
75798;SDS011;70933;44.692;37.776;2023-10-09T02:03:13;1.75;;;1.10;;
75798;SDS011;70933;44.692;37.776;2023-10-09T02:04:16;1.83;;;0.20;;
75798;SDS011;70933;44.692;37.776;2023-10-09T02:05:21;0.93;;;0.10;;
75798;SDS011;70933;44.692;37.776;2023-10-09T02:06:22;1.15;;;0.60;;
75798;SDS011;70933;44.692;37.776;2023-10-09T02:07:27;1.55;;;1.00;;
75798;SDS011;70933;44.692;37.776;2023-10-09T02:08:30;1.60;;;1.45;;
75798;SDS011;70933;44.692;37.776;2023-10-09T02:09:36;0.70;;;0.10;;
75798;SDS011;70933;44.692;37.776;2023-10-09T02:10:45;1.35;;;0.10;;
75798;SDS011;70933;44.692;37.776;2023-10-09T02:11:49;0.55;;;0.00;;
75798;SDS011;70933;44.692;37.776;2023-10-09T02:12:52;0.90;;;0.00;;
75798;SDS011;70933;44.692;37.776;2023-10-09T02:14:01;1.20;;;1.10;;
75798;SDS011;70933;44.692;37.776;2023-10-09T02:15:06;1.55;;;0.90;;
75798;SDS011;70933;44.692;37.776;2023-10-09T02:16:16;1.98;;;0.08;;
75798;SDS011;70933;44.692;37.776;2023-10-09T02:17:30;2.47;;;0.40;;
75798;SDS011;70933;44.692;37.776;2023-10-09T02:18:35;2.33;;;1.25;;
75798;SDS011;70933;44.692;37.776;2023-10-09T02:19:36;1.33;;;0.10;;
75798;SDS011;70933;44.692;37.776;2023-10-09T02:20:45;0.80;;;0.52;;
75798;SDS011;70933;44.692;37.776;2023-10-09T02:21:49;0.93;;;0.00;;
75798;SDS011;70933;44.692;37.776;2023-10-09T02:22:50;1.27;;;0.10;;
75798;SDS011;70933;44.692;37.776;2023-10-09T02:23:53;1.42;;;0.65;;
75798;SDS011;70933;44.692;37.776;2023-10-09T02:24:58;1.05;;;0.28;;
75798;SDS011;70933;44.692;37.776;2023-10-09T02:25:59;1.38;;;0.15;;
75798;SDS011;70933;44.692;37.776;2023-10-09T02:27:05;1.63;;;0.20;;
75798;SDS011;70933;44.692;37.776;2023-10-09T02:28:07;1.10;;;0.30;;
75798;SDS011;70933;44.692;37.776;2023-10-09T02:29:09;2.42;;;0.85;;
75798;SDS011;70933;44.692;37.776;2023-10-09T02:30:13;1.35;;;1.02;;
75798;SDS011;70933;44.692;37.776;2023-10-09T02:31:20;1.35;;;0.00;;
75798;SDS011;70933;44.692;37.776;2023-10-09T02:32:27;0.82;;;0.03;;
75798;SDS011;70933;44.692;37.776;2023-10-09T02:33:29;1.77;;;0.10;;
75798;SDS011;70933;44.692;37.776;2023-10-09T02:34:31;1.73;;;0.32;;
75798;SDS011;70933;44.692;37.776;2023-10-09T02:35:39;1.00;;;0.10;;
75798;SDS011;70933;44.692;37.776;2023-10-09T02:36:43;1.58;;;0.20;;
75798;SDS011;70933;44.692;37.776;2023-10-09T02:37:50;1.00;;;0.10;;
75798;SDS011;70933;44.692;37.776;2023-10-09T02:38:53;1.42;;;0.10;;
75798;SDS011;70933;44.692;37.776;2023-10-09T02:39:58;1.38;;;0.10;;
75798;SDS011;70933;44.692;37.776;2023-10-09T02:41:05;1.45;;;0.20;;
75798;SDS011;70933;44.692;37.776;2023-10-09T02:42:06;1.67;;;0.00;;
75798;SDS011;70933;44.692;37.776;2023-10-09T02:43:28;1.05;;;0.00;;
75798;SDS011;70933;44.692;37.776;2023-10-09T02:44:51;1.67;;;0.10;;
75798;SDS011;70933;44.692;37.776;2023-10-09T02:45:53;1.75;;;1.20;;
75798;SDS011;70933;44.692;37.776;2023-10-09T02:46:55;0.82;;;0.10;;
75798;SDS011;70933;44.692;37.776;2023-10-09T02:47:58;1.60;;;1.40;;
75798;SDS011;70933;44.692;37.776;2023-10-09T02:49:01;1.75;;;0.40;;
75798;SDS011;70933;44.692;37.776;2023-10-09T02:50:10;1.05;;;0.20;;
75798;SDS011;70933;44.692;37.776;2023-10-09T02:51:12;1.20;;;0.95;;
75798;SDS011;70933;44.692;37.776;2023-10-09T02:52:31;1.50;;;0.10;;
75798;SDS011;70933;44.692;37.776;2023-10-09T02:53:36;1.33;;;1.08;;
75798;SDS011;70933;44.692;37.776;2023-10-09T02:54:37;1.90;;;1.27;;
75798;SDS011;70933;44.692;37.776;2023-10-09T02:55:43;0.90;;;0.13;;
75798;SDS011;70933;44.692;37.776;2023-10-09T02:56:54;1.80;;;0.00;;
75798;SDS011;70933;44.692;37.776;2023-10-09T02:57:57;0.88;;;0.17;;
75798;SDS011;70933;44.692;37.776;2023-10-09T02:59:12;1.10;;;0.10;;
75798;SDS011;70933;44.692;37.776;2023-10-09T03:00:13;2.10;;;0.10;;
75798;SDS011;70933;44.692;37.776;2023-10-09T03:01:29;1.25;;;0.10;;
75798;SDS011;70933;44.692;37.776;2023-10-09T03:02:31;1.00;;;0.10;;
75798;SDS011;70933;44.692;37.776;2023-10-09T03:03:32;1.58;;;1.40;;
75798;SDS011;70933;44.692;37.776;2023-10-09T03:04:36;2.72;;;0.22;;
75798;SDS011;70933;44.692;37.776;2023-10-09T03:05:39;1.13;;;0.00;;
75798;SDS011;70933;44.692;37.776;2023-10-09T03:06:43;1.60;;;0.10;;
75798;SDS011;70933;44.692;37.776;2023-10-09T03:07:51;2.55;;;2.35;;
75798;SDS011;70933;44.692;37.776;2023-10-09T03:08:54;1.88;;;1.02;;
75798;SDS011;70933;44.692;37.776;2023-10-09T03:09:55;0.95;;;0.10;;
75798;SDS011;70933;44.692;37.776;2023-10-09T03:10:57;1.67;;;0.88;;
75798;SDS011;70933;44.692;37.776;2023-10-09T03:12:02;1.35;;;0.38;;
75798;SDS011;70933;44.692;37.776;2023-10-09T03:13:05;1.60;;;1.38;;
75798;SDS011;70933;44.692;37.776;2023-10-09T03:14:07;1.27;;;0.40;;
75798;SDS011;70933;44.692;37.776;2023-10-09T03:15:08;0.95;;;0.10;;
75798;SDS011;70933;44.692;37.776;2023-10-09T03:16:12;3.33;;;1.45;;
75798;SDS011;70933;44.692;37.776;2023-10-09T03:17:23;1.63;;;1.17;;
75798;SDS011;70933;44.692;37.776;2023-10-09T03:18:24;1.80;;;1.13;;
75798;SDS011;70933;44.692;37.776;2023-10-09T03:19:26;2.13;;;0.10;;
75798;SDS011;70933;44.692;37.776;2023-10-09T03:20:31;1.52;;;0.20;;
75798;SDS011;70933;44.692;37.776;2023-10-09T03:21:33;1.70;;;0.20;;
75798;SDS011;70933;44.692;37.776;2023-10-09T03:22:34;1.92;;;1.73;;
75798;SDS011;70933;44.692;37.776;2023-10-09T03:23:37;1.58;;;1.10;;
75798;SDS011;70933;44.692;37.776;2023-10-09T03:24:39;1.30;;;0.10;;
75798;SDS011;70933;44.692;37.776;2023-10-09T03:25:46;2.72;;;1.25;;
75798;SDS011;70933;44.692;37.776;2023-10-09T03:26:47;1.00;;;0.10;;
75798;SDS011;70933;44.692;37.776;2023-10-09T03:27:52;1.95;;;1.60;;
75798;SDS011;70933;44.692;37.776;2023-10-09T03:28:57;2.28;;;1.70;;
75798;SDS011;70933;44.692;37.776;2023-10-09T03:30:02;1.75;;;1.40;;
75798;SDS011;70933;44.692;37.776;2023-10-09T03:31:06;1.27;;;0.98;;
75798;SDS011;70933;44.692;37.776;2023-10-09T03:32:08;0.88;;;0.10;;
75798;SDS011;70933;44.692;37.776;2023-10-09T03:33:09;0.98;;;0.10;;
75798;SDS011;70933;44.692;37.776;2023-10-09T03:34:12;1.23;;;0.40;;
75798;SDS011;70933;44.692;37.776;2023-10-09T03:35:13;1.00;;;0.10;;
75798;SDS011;70933;44.692;37.776;2023-10-09T03:36:25;1.05;;;0.10;;
75798;SDS011;70933;44.692;37.776;2023-10-09T03:37:31;1.33;;;0.10;;
75798;SDS011;70933;44.692;37.776;2023-10-09T03:38:36;0.75;;;0.10;;
75798;SDS011;70933;44.692;37.776;2023-10-09T03:39:39;1.67;;;0.10;;
75798;SDS011;70933;44.692;37.776;2023-10-09T03:40:44;1.15;;;0.00;;
75798;SDS011;70933;44.692;37.776;2023-10-09T03:41:48;1.13;;;0.10;;
75798;SDS011;70933;44.692;37.776;2023-10-09T03:42:51;1.77;;;0.68;;
75798;SDS011;70933;44.692;37.776;2023-10-09T03:43:53;1.08;;;0.95;;
75798;SDS011;70933;44.692;37.776;2023-10-09T03:44:55;1.08;;;0.00;;
75798;SDS011;70933;44.692;37.776;2023-10-09T03:47:00;1.58;;;0.20;;
75798;SDS011;70933;44.692;37.776;2023-10-09T03:48:03;1.20;;;0.28;;
75798;SDS011;70933;44.692;37.776;2023-10-09T03:50:16;2.03;;;0.15;;
75798;SDS011;70933;44.692;37.776;2023-10-09T03:51:36;2.17;;;0.20;;
75798;SDS011;70933;44.692;37.776;2023-10-09T03:52:38;1.30;;;0.13;;
75798;SDS011;70933;44.692;37.776;2023-10-09T03:53:41;1.38;;;0.55;;
75798;SDS011;70933;44.692;37.776;2023-10-09T03:54:43;2.80;;;0.20;;
75798;SDS011;70933;44.692;37.776;2023-10-09T03:55:47;1.77;;;0.20;;
75798;SDS011;70933;44.692;37.776;2023-10-09T03:56:49;1.98;;;0.10;;
75798;SDS011;70933;44.692;37.776;2023-10-09T03:57:51;1.48;;;0.35;;
75798;SDS011;70933;44.692;37.776;2023-10-09T03:58:53;1.25;;;0.03;;
75798;SDS011;70933;44.692;37.776;2023-10-09T03:59:55;1.83;;;0.22;;
75798;SDS011;70933;44.692;37.776;2023-10-09T04:00:57;2.08;;;0.45;;
75798;SDS011;70933;44.692;37.776;2023-10-09T04:01:59;2.55;;;1.60;;
75798;SDS011;70933;44.692;37.776;2023-10-09T04:03:00;1.92;;;0.50;;
75798;SDS011;70933;44.692;37.776;2023-10-09T04:04:04;1.88;;;0.35;;
75798;SDS011;70933;44.692;37.776;2023-10-09T04:05:11;1.35;;;0.35;;
75798;SDS011;70933;44.692;37.776;2023-10-09T04:06:12;1.75;;;1.15;;
75798;SDS011;70933;44.692;37.776;2023-10-09T04:07:15;1.27;;;0.03;;
75798;SDS011;70933;44.692;37.776;2023-10-09T04:08:17;2.13;;;1.40;;
75798;SDS011;70933;44.692;37.776;2023-10-09T04:09:21;1.63;;;0.20;;
75798;SDS011;70933;44.692;37.776;2023-10-09T04:10:24;2.67;;;1.30;;
75798;SDS011;70933;44.692;37.776;2023-10-09T04:11:54;2.17;;;0.20;;
75798;SDS011;70933;44.692;37.776;2023-10-09T04:13:11;1.70;;;0.13;;
75798;SDS011;70933;44.692;37.776;2023-10-09T04:14:19;1.20;;;0.13;;
75798;SDS011;70933;44.692;37.776;2023-10-09T04:15:33;1.70;;;0.25;;
75798;SDS011;70933;44.692;37.776;2023-10-09T04:16:36;2.20;;;1.10;;
75798;SDS011;70933;44.692;37.776;2023-10-09T04:17:52;2.78;;;0.60;;
75798;SDS011;70933;44.692;37.776;2023-10-09T04:18:53;2.22;;;1.65;;
75798;SDS011;70933;44.692;37.776;2023-10-09T04:19:58;2.25;;;0.10;;
75798;SDS011;70933;44.692;37.776;2023-10-09T04:21:18;1.40;;;0.30;;
75798;SDS011;70933;44.692;37.776;2023-10-09T04:22:20;2.05;;;0.20;;
75798;SDS011;70933;44.692;37.776;2023-10-09T04:23:28;1.92;;;1.13;;
75798;SDS011;70933;44.692;37.776;2023-10-09T04:24:36;1.45;;;0.20;;
75798;SDS011;70933;44.692;37.776;2023-10-09T04:25:45;1.50;;;0.30;;
75798;SDS011;70933;44.692;37.776;2023-10-09T04:26:51;1.48;;;1.05;;
75798;SDS011;70933;44.692;37.776;2023-10-09T04:27:59;2.05;;;1.85;;
75798;SDS011;70933;44.692;37.776;2023-10-09T04:29:10;1.30;;;0.20;;
75798;SDS011;70933;44.692;37.776;2023-10-09T04:30:28;2.05;;;0.20;;
75798;SDS011;70933;44.692;37.776;2023-10-09T04:31:29;1.67;;;0.20;;
75798;SDS011;70933;44.692;37.776;2023-10-09T04:32:38;2.38;;;1.13;;
75798;SDS011;70933;44.692;37.776;2023-10-09T04:33:41;1.75;;;0.30;;
75798;SDS011;70933;44.692;37.776;2023-10-09T04:34:54;2.42;;;0.20;;
75798;SDS011;70933;44.692;37.776;2023-10-09T04:36:18;2.17;;;1.02;;
75798;SDS011;70933;44.692;37.776;2023-10-09T04:37:20;1.77;;;0.20;;
75798;SDS011;70933;44.692;37.776;2023-10-09T04:38:37;3.75;;;2.58;;
75798;SDS011;70933;44.692;37.776;2023-10-09T04:39:39;1.95;;;1.10;;
75798;SDS011;70933;44.692;37.776;2023-10-09T04:40:47;1.23;;;0.25;;
75798;SDS011;70933;44.692;37.776;2023-10-09T04:41:52;1.25;;;0.10;;
75798;SDS011;70933;44.692;37.776;2023-10-09T04:42:54;1.52;;;0.30;;
75798;SDS011;70933;44.692;37.776;2023-10-09T04:44:06;2.78;;;1.55;;
75798;SDS011;70933;44.692;37.776;2023-10-09T04:45:20;2.08;;;1.40;;
75798;SDS011;70933;44.692;37.776;2023-10-09T04:46:42;2.65;;;1.63;;
75798;SDS011;70933;44.692;37.776;2023-10-09T04:48:06;2.13;;;1.45;;
75798;SDS011;70933;44.692;37.776;2023-10-09T04:49:09;1.63;;;0.93;;
75798;SDS011;70933;44.692;37.776;2023-10-09T04:50:29;1.88;;;0.20;;
75798;SDS011;70933;44.692;37.776;2023-10-09T04:51:30;2.00;;;0.38;;
75798;SDS011;70933;44.692;37.776;2023-10-09T04:52:38;2.42;;;0.43;;
75798;SDS011;70933;44.692;37.776;2023-10-09T04:53:39;2.08;;;0.20;;
75798;SDS011;70933;44.692;37.776;2023-10-09T04:54:48;2.00;;;1.17;;
75798;SDS011;70933;44.692;37.776;2023-10-09T04:56:08;2.20;;;1.73;;
75798;SDS011;70933;44.692;37.776;2023-10-09T04:57:16;1.50;;;0.20;;
75798;SDS011;70933;44.692;37.776;2023-10-09T04:58:18;2.60;;;1.20;;
75798;SDS011;70933;44.692;37.776;2023-10-09T04:59:27;2.25;;;0.45;;
75798;SDS011;70933;44.692;37.776;2023-10-09T05:00:29;2.17;;;1.83;;
75798;SDS011;70933;44.692;37.776;2023-10-09T05:01:31;2.97;;;2.05;;
75798;SDS011;70933;44.692;37.776;2023-10-09T05:02:44;2.55;;;1.17;;
75798;SDS011;70933;44.692;37.776;2023-10-09T05:03:55;1.30;;;0.22;;
75798;SDS011;70933;44.692;37.776;2023-10-09T05:05:03;2.33;;;0.30;;
75798;SDS011;70933;44.692;37.776;2023-10-09T05:06:37;1.88;;;1.30;;
75798;SDS011;70933;44.692;37.776;2023-10-09T05:07:55;3.15;;;0.40;;
75798;SDS011;70933;44.692;37.776;2023-10-09T05:08:58;2.10;;;1.02;;
75798;SDS011;70933;44.692;37.776;2023-10-09T05:10:08;2.03;;;0.30;;
75798;SDS011;70933;44.692;37.776;2023-10-09T05:11:17;1.45;;;0.52;;
75798;SDS011;70933;44.692;37.776;2023-10-09T05:12:36;2.42;;;1.38;;
75798;SDS011;70933;44.692;37.776;2023-10-09T05:13:47;3.15;;;0.43;;
75798;SDS011;70933;44.692;37.776;2023-10-09T05:14:58;3.22;;;0.43;;
75798;SDS011;70933;44.692;37.776;2023-10-09T05:16:16;2.97;;;1.48;;
75798;SDS011;70933;44.692;37.776;2023-10-09T05:17:30;3.38;;;0.60;;
75798;SDS011;70933;44.692;37.776;2023-10-09T05:18:35;2.95;;;2.05;;
75798;SDS011;70933;44.692;37.776;2023-10-09T05:19:39;3.28;;;0.30;;
75798;SDS011;70933;44.692;37.776;2023-10-09T05:20:58;3.08;;;0.65;;
75798;SDS011;70933;44.692;37.776;2023-10-09T05:22:22;2.35;;;0.30;;
75798;SDS011;70933;44.692;37.776;2023-10-09T05:23:39;2.40;;;0.57;;
75798;SDS011;70933;44.692;37.776;2023-10-09T05:25:10;2.00;;;0.30;;
75798;SDS011;70933;44.692;37.776;2023-10-09T05:26:17;3.78;;;1.95;;
75798;SDS011;70933;44.692;37.776;2023-10-09T05:27:38;2.88;;;0.50;;
75798;SDS011;70933;44.692;37.776;2023-10-09T05:28:51;2.08;;;0.38;;
75798;SDS011;70933;44.692;37.776;2023-10-09T05:29:55;4.32;;;0.80;;
75798;SDS011;70933;44.692;37.776;2023-10-09T05:31:00;3.20;;;0.80;;
75798;SDS011;70933;44.692;37.776;2023-10-09T05:32:13;2.92;;;0.43;;
75798;SDS011;70933;44.692;37.776;2023-10-09T05:34:32;3.25;;;0.40;;
75798;SDS011;70933;44.692;37.776;2023-10-09T05:35:35;3.35;;;1.63;;
75798;SDS011;70933;44.692;37.776;2023-10-09T05:36:49;3.95;;;0.73;;
75798;SDS011;70933;44.692;37.776;2023-10-09T05:37:50;2.63;;;1.33;;
75798;SDS011;70933;44.692;37.776;2023-10-09T05:39:02;2.95;;;1.33;;
75798;SDS011;70933;44.692;37.776;2023-10-09T05:40:23;2.85;;;0.65;;
75798;SDS011;70933;44.692;37.776;2023-10-09T05:41:31;2.17;;;0.52;;
75798;SDS011;70933;44.692;37.776;2023-10-09T05:42:48;2.97;;;0.70;;
75798;SDS011;70933;44.692;37.776;2023-10-09T05:44:00;3.85;;;0.60;;
75798;SDS011;70933;44.692;37.776;2023-10-09T05:45:36;2.65;;;0.50;;
75798;SDS011;70933;44.692;37.776;2023-10-09T05:47:13;2.30;;;0.73;;
75798;SDS011;70933;44.692;37.776;2023-10-09T05:48:32;3.80;;;1.35;;
75798;SDS011;70933;44.692;37.776;2023-10-09T05:49:40;4.85;;;0.60;;
75798;SDS011;70933;44.692;37.776;2023-10-09T05:50:47;2.85;;;0.77;;
75798;SDS011;70933;44.692;37.776;2023-10-09T05:52:07;3.53;;;0.65;;
75798;SDS011;70933;44.692;37.776;2023-10-09T05:53:29;2.53;;;0.85;;
75798;SDS011;70933;44.692;37.776;2023-10-09T05:54:45;2.65;;;0.60;;
75798;SDS011;70933;44.692;37.776;2023-10-09T05:56:15;3.28;;;1.05;;
75798;SDS011;70933;44.692;37.776;2023-10-09T05:57:35;6.28;;;0.52;;
75798;SDS011;70933;44.692;37.776;2023-10-09T05:58:56;2.78;;;0.75;;
75798;SDS011;70933;44.692;37.776;2023-10-09T06:00:16;2.97;;;0.57;;
75798;SDS011;70933;44.692;37.776;2023-10-09T06:01:36;3.10;;;0.77;;
75798;SDS011;70933;44.692;37.776;2023-10-09T06:02:56;3.22;;;1.83;;
75798;SDS011;70933;44.692;37.776;2023-10-09T06:04:17;3.38;;;0.70;;
75798;SDS011;70933;44.692;37.776;2023-10-09T06:05:21;2.42;;;0.38;;
75798;SDS011;70933;44.692;37.776;2023-10-09T06:06:41;2.63;;;0.50;;
75798;SDS011;70933;44.692;37.776;2023-10-09T06:07:45;2.45;;;1.50;;
75798;SDS011;70933;44.692;37.776;2023-10-09T06:09:08;2.95;;;1.77;;
75798;SDS011;70933;44.692;37.776;2023-10-09T06:10:29;2.35;;;0.40;;
75798;SDS011;70933;44.692;37.776;2023-10-09T06:11:41;1.98;;;0.30;;
75798;SDS011;70933;44.692;37.776;2023-10-09T06:12:50;2.35;;;1.95;;
75798;SDS011;70933;44.692;37.776;2023-10-09T06:13:58;3.95;;;1.65;;
75798;SDS011;70933;44.692;37.776;2023-10-09T06:15:09;4.53;;;1.45;;
75798;SDS011;70933;44.692;37.776;2023-10-09T06:16:34;2.58;;;1.35;;
75798;SDS011;70933;44.692;37.776;2023-10-09T06:17:54;2.63;;;0.30;;
75798;SDS011;70933;44.692;37.776;2023-10-09T06:19:01;2.80;;;0.30;;
75798;SDS011;70933;44.692;37.776;2023-10-09T06:20:34;2.53;;;1.65;;
75798;SDS011;70933;44.692;37.776;2023-10-09T06:22:09;3.30;;;1.52;;
75798;SDS011;70933;44.692;37.776;2023-10-09T06:23:30;2.72;;;1.88;;
75798;SDS011;70933;44.692;37.776;2023-10-09T06:24:50;4.30;;;1.42;;
75798;SDS011;70933;44.692;37.776;2023-10-09T06:25:55;3.00;;;1.52;;
75798;SDS011;70933;44.692;37.776;2023-10-09T06:27:06;3.03;;;0.47;;
75798;SDS011;70933;44.692;37.776;2023-10-09T06:28:11;2.55;;;1.38;;
75798;SDS011;70933;44.692;37.776;2023-10-09T06:29:14;3.03;;;0.35;;
75798;SDS011;70933;44.692;37.776;2023-10-09T06:30:19;3.45;;;0.30;;
75798;SDS011;70933;44.692;37.776;2023-10-09T06:31:28;1.98;;;0.60;;
75798;SDS011;70933;44.692;37.776;2023-10-09T06:32:49;2.22;;;0.20;;
75798;SDS011;70933;44.692;37.776;2023-10-09T06:34:11;2.13;;;0.20;;
75798;SDS011;70933;44.692;37.776;2023-10-09T06:35:16;2.85;;;0.20;;
75798;SDS011;70933;44.692;37.776;2023-10-09T06:36:31;2.85;;;0.30;;
75798;SDS011;70933;44.692;37.776;2023-10-09T06:37:33;2.22;;;0.63;;
75798;SDS011;70933;44.692;37.776;2023-10-09T06:38:34;1.65;;;0.28;;
75798;SDS011;70933;44.692;37.776;2023-10-09T06:39:56;3.50;;;1.35;;
75798;SDS011;70933;44.692;37.776;2023-10-09T06:41:00;3.13;;;0.57;;
75798;SDS011;70933;44.692;37.776;2023-10-09T06:42:05;3.30;;;1.50;;
75798;SDS011;70933;44.692;37.776;2023-10-09T06:43:20;2.85;;;1.75;;
75798;SDS011;70933;44.692;37.776;2023-10-09T06:44:22;5.13;;;1.38;;
75798;SDS011;70933;44.692;37.776;2023-10-09T06:45:44;2.83;;;1.38;;
75798;SDS011;70933;44.692;37.776;2023-10-09T06:46:46;1.75;;;1.15;;
75798;SDS011;70933;44.692;37.776;2023-10-09T06:47:53;3.88;;;0.40;;
75798;SDS011;70933;44.692;37.776;2023-10-09T06:49:08;2.58;;;1.55;;
75798;SDS011;70933;44.692;37.776;2023-10-09T06:50:28;2.55;;;0.20;;
75798;SDS011;70933;44.692;37.776;2023-10-09T06:51:49;1.73;;;0.47;;